Time;durP1;ratioP1;P1;durP2;ratioP2;P2;SDS_P1;SDS_P2;PMS_P1;PMS_P2;Temp;Humidity;BMP_temperature;BMP_pressure;BME280_temperature;BME280_humidity;BME280_pressure;Samples;Min_cycle;Max_cycle;Signal;HPM_P1;HPM_P2
2022/12/13 00:00:17;;;;;;;16.10;6.20;;;;;;;-5.55;90.97;101187.28;5072590;28;20021;-81
2022/12/13 00:02:44;;;;;;;15.90;6.28;;;;;;;-5.57;90.93;101175.34;5073353;28;20017;-81
2022/12/13 00:05:09;;;;;;;17.00;6.65;;;;;;;-5.57;91.16;101181.25;5071243;28;20020;-81
2022/12/13 00:07:34;;;;;;;15.80;6.50;;;;;;;-5.58;90.81;101179.50;5073007;28;20035;-81
2022/12/13 00:10:00;;;;;;;15.93;6.65;;;;;;;-5.61;91.14;101176.81;5072157;28;20036;-81
2022/12/13 00:12:26;;;;;;;16.17;6.20;;;;;;;-5.62;91.13;101180.13;5072431;28;20043;-81
2022/12/13 00:14:52;;;;;;;16.87;6.53;;;;;;;-5.64;90.79;101174.97;5072747;28;20025;-81
2022/12/13 00:17:17;;;;;;;16.58;6.55;;;;;;;-5.67;91.01;101172.28;5071194;28;20020;-81
2022/12/13 00:19:42;;;;;;;16.83;6.53;;;;;;;-5.67;90.79;101164.69;5072827;28;20468;-81
2022/12/13 00:22:08;;;;;;;17.15;6.55;;;;;;;-5.68;91.01;101164.63;5072411;28;20539;-80
2022/12/13 00:24:33;;;;;;;16.63;6.20;;;;;;;-5.68;91.08;101167.13;5072207;28;20059;-82
2022/12/13 00:26:58;;;;;;;16.08;5.97;;;;;;;-5.69;90.59;101166.28;5072401;28;20048;-81
2022/12/13 00:29:24;;;;;;;15.38;6.10;;;;;;;-5.71;90.82;101161.91;5071645;28;20029;-81
2022/12/13 00:31:49;;;;;;;14.90;6.20;;;;;;;-5.74;90.86;101158.41;5071812;28;20553;-81
2022/12/13 00:34:15;;;;;;;16.08;6.30;;;;;;;-5.75;91.09;101165.91;5072559;28;20021;-81
2022/12/13 00:36:40;;;;;;;16.98;6.47;;;;;;;-5.77;90.99;101154.84;5072741;28;20103;-81
2022/12/13 00:39:05;;;;;;;16.83;6.25;;;;;;;-5.78;90.76;101164.09;5071640;28;20082;-81
2022/12/13 00:41:33;;;;;;;15.63;6.20;;;;;;;-5.79;91.22;101166.53;5072352;28;20056;-81
2022/12/13 00:43:59;;;;;;;15.07;6.30;;;;;;;-5.80;90.71;101160.59;5072850;28;20025;-81
2022/12/13 00:46:25;;;;;;;16.98;6.53;;;;;;;-5.81;90.88;101170.66;5071870;28;20032;-81
2022/12/13 00:48:53;;;;;;;17.42;6.32;;;;;;;-5.84;90.99;101157.81;5072407;28;20043;-81
2022/12/13 00:51:20;;;;;;;17.02;6.70;;;;;;;-5.85;91.10;101162.00;5072199;28;20488;-80
2022/12/13 00:53:45;;;;;;;17.45;6.95;;;;;;;-5.85;91.00;101156.94;5071729;28;20029;-81
2022/12/13 00:56:13;;;;;;;15.80;6.30;;;;;;;-5.87;90.92;101160.19;5072483;28;20039;-81
2022/12/13 00:58:39;;;;;;;15.77;6.32;;;;;;;-5.90;90.93;101156.69;5072567;28;20489;-81
2022/12/13 01:01:11;;;;;;;16.37;6.57;;;;;;;-5.89;90.86;101155.91;5070832;28;20103;-80
2022/12/13 01:03:38;;;;;;;17.15;6.78;;;;;;;-5.89;90.92;101150.84;5071503;28;20754;-81
2022/12/13 01:06:28;;;;;;;19.33;7.47;;;;;;;-5.90;91.06;101148.25;5072009;28;20024;-80
2022/12/13 01:08:54;;;;;;;16.70;6.78;;;;;;;-5.93;90.76;101153.13;5072506;28;20025;-81
2022/12/13 01:11:19;;;;;;;15.38;6.13;;;;;;;-5.94;90.63;101154.78;5071689;28;20078;-80
2022/12/13 01:14:00;;;;;;;16.70;7.03;;;;;;;-5.98;90.60;101154.53;5071040;28;20098;-81
2022/12/13 01:16:25;;;;;;;15.63;6.13;;;;;;;-5.99;90.97;101147.75;5071230;28;20032;-81
2022/12/13 01:18:50;;;;;;;16.10;6.30;;;;;;;-6.01;90.80;101149.31;5072257;28;20019;-81
2022/12/13 01:21:17;;;;;;;17.70;6.85;;;;;;;-6.03;91.13;101140.78;5071170;28;20174;-81
2022/12/13 01:23:44;;;;;;;16.48;6.45;;;;;;;-6.03;91.05;101146.72;5072005;28;20043;-80
2022/12/13 01:26:20;;;;;;;17.67;6.33;;;;;;;-6.05;91.09;101145.75;5070712;28;20055;-80
2022/12/13 01:28:46;;;;;;;17.02;6.50;;;;;;;-6.05;90.73;101144.09;5071278;28;20314;-81
2022/12/13 01:31:21;;;;;;;16.30;6.13;;;;;;;-6.06;90.95;101149.06;5071862;28;20021;-81
2022/12/13 01:33:49;;;;;;;15.52;6.25;;;;;;;-6.08;90.75;101143.91;5071952;28;20037;-81
2022/12/13 01:36:19;;;;;;;15.82;6.47;;;;;;;-6.08;91.19;101145.56;5071323;28;20423;-81
2022/12/13 01:38:45;;;;;;;17.63;6.60;;;;;;;-6.06;90.67;101149.91;5072165;28;20082;-81
2022/12/13 01:41:16;;;;;;;17.90;6.53;;;;;;;-6.08;90.88;101154.00;5073054;28;20025;-81
2022/12/13 01:43:41;;;;;;;17.00;6.28;;;;;;;-6.10;91.06;101159.75;5075315;28;20461;-81
2022/12/13 01:46:08;;;;;;;17.27;6.50;;;;;;;-6.12;90.70;101161.31;5075409;28;20066;-80
2022/12/13 01:48:38;;;;;;;16.77;6.68;;;;;;;-6.12;90.71;101159.69;5075247;28;20390;-80
2022/12/13 01:51:05;;;;;;;16.75;6.38;;;;;;;-6.12;91.02;101159.69;5075531;28;20070;-80
2022/12/13 01:53:32;;;;;;;;;;;;;;;-6.14;90.68;101156.19;5076070;28;20028;-80
2022/12/13 01:56:04;;;;;;;17.08;6.28;;;;;;;-6.16;90.62;101155.22;5074487;28;19961;-81
2022/12/13 01:58:30;;;;;;;17.70;6.50;;;;;;;-6.15;90.84;101159.50;5075487;28;20082;-80
2022/12/13 02:00:56;;;;;;;16.77;6.60;;;;;;;-6.17;90.73;101156.00;5075590;28;20036;-81
2022/12/13 02:03:22;;;;;;;17.15;6.72;;;;;;;-6.17;90.87;101156.00;5073215;28;20035;-81
2022/12/13 02:05:54;;;;;;;18.58;7.03;;;;;;;-6.16;90.64;101164.47;5075075;28;20029;-80
2022/12/13 02:08:21;;;;;;;17.88;6.40;;;;;;;-6.18;90.77;101156.78;5074678;28;20025;-80
2022/12/13 02:10:46;;;;;;;18.08;6.80;;;;;;;-6.21;90.61;101154.13;5074801;28;20032;-80
2022/12/13 02:13:11;;;;;;;18.30;6.68;;;;;;;-6.24;90.55;101153.94;5074605;28;20040;-81
2022/12/13 02:16:01;;;;;;;16.65;6.75;;;;;;;-6.26;90.35;101155.47;5075171;28;20020;-80
2022/12/13 02:18:42;;;;;;;16.65;6.28;;;;;;;-6.31;90.51;101155.22;5073926;28;20020;-80
2022/12/13 02:21:17;;;;;;;17.42;6.85;;;;;;;-6.30;90.85;101151.03;5074966;28;20040;-81
2022/12/13 02:24:22;;;;;;;18.05;6.63;;;;;;;-6.32;90.54;101150.09;5074564;28;20031;-80
2022/12/13 02:26:59;;;;;;;18.20;6.63;;;;;;;-6.36;90.70;101151.56;5074536;28;20049;-80
2022/12/13 02:29:33;;;;;;;19.17;6.88;;;;;;;-6.39;90.67;101148.88;5074640;28;20032;-81
2022/12/13 02:32:14;;;;;;;17.27;6.68;;;;;;;-6.40;90.76;101147.97;5074450;28;20074;-81
2022/12/13 02:35:08;;;;;;;16.73;6.60;;;;;;;-6.40;90.83;101157.22;5075013;28;20042;-81
2022/12/13 02:37:47;;;;;;;18.02;6.57;;;;;;;-6.42;90.85;101152.09;5074812;28;20033;-80
2022/12/13 02:40:37;;;;;;;17.65;6.68;;;;;;;-6.42;90.91;101147.03;5074473;28;20106;-80
2022/12/13 02:43:19;;;;;;;15.82;6.10;;;;;;;-6.45;90.68;101139.28;5074061;28;20025;-80
2022/12/13 02:45:48;;;;;;;17.92;6.65;;;;;;;-6.43;90.63;101134.31;5073735;28;20111;-81
2022/12/13 02:48:22;;;;;;;16.40;6.70;;;;;;;-6.45;90.69;101135.84;5074177;28;20492;-80
2022/12/13 02:50:50;;;;;;;16.70;6.45;;;;;;;-6.44;90.51;101138.50;5074590;28;20032;-81
2022/12/13 02:53:16;;;;;;;16.48;6.43;;;;;;;-6.45;90.61;101136.75;5072630;28;20024;-81
2022/12/13 02:55:42;;;;;;;17.50;6.90;;;;;;;-6.46;90.61;101135.00;5074243;28;20075;-80
2022/12/13 02:58:11;;;;;;;15.70;6.00;;;;;;;-6.48;90.74;101131.50;5073756;28;20374;-81
2022/12/13 03:01:05;;;;;;;17.92;6.75;;;;;;;-6.47;90.56;101128.19;5073499;28;20476;-80
2022/12/13 03:03:48;;;;;;;16.73;6.68;;;;;;;-6.49;90.70;101124.72;5063145;28;20397;-81
2022/12/13 03:06:36;;;;;;;16.15;6.43;;;;;;;-6.50;90.81;101117.06;5073095;28;20044;-81
2022/12/13 03:09:24;;;;;;;20.08;7.60;;;;;;;-6.49;90.97;101122.19;5074168;28;20028;-81
2022/12/13 03:15:22;;;;;;;18.33;7.32;;;;;;;-6.47;90.93;101115.56;5073322;28;20094;-81
2022/12/13 03:18:14;;;;;;;19.60;7.75;;;;;;;-6.46;91.19;101111.38;5074002;28;20032;-80
2022/12/13 03:20:44;;;;;;;20.27;7.60;;;;;;;-6.49;90.93;101119.66;5073064;28;20519;-80
2022/12/13 03:23:10;;;;;;;18.40;7.10;;;;;;;-6.53;91.08;101118.63;5073251;28;20029;-80
2022/12/13 03:25:36;;;;;;;16.87;6.50;;;;;;;-6.53;91.11;101120.28;5072630;28;20641;-80
2022/12/13 03:28:02;;;;;;;18.95;6.85;;;;;;;-6.52;91.28;101122.88;5072778;28;20132;-80
2022/12/13 03:30:29;;;;;;;17.67;6.78;;;;;;;-6.50;91.04;101125.50;5073335;28;20580;-80
2022/12/13 03:32:55;;;;;;;18.02;6.50;;;;;;;-6.52;91.17;101125.41;5073261;28;20469;-81
2022/12/13 03:35:20;;;;;;;17.95;6.95;;;;;;;-6.50;91.21;101119.59;5072705;28;20032;-80
2022/12/13 03:37:46;;;;;;;16.58;6.25;;;;;;;-6.53;91.05;101121.13;5073361;28;20082;-80
2022/12/13 03:40:11;;;;;;;15.70;6.22;;;;;;;-6.53;91.25;101122.81;5073267;28;20476;-81
2022/12/13 03:42:37;;;;;;;16.88;6.50;;;;;;;-6.53;90.97;101126.19;5072884;28;20020;-81
2022/12/13 03:45:02;;;;;;;18.23;7.07;;;;;;;-6.53;91.23;101120.28;5073130;28;20033;-80
2022/12/13 03:47:27;;;;;;;18.55;7.38;;;;;;;-6.53;91.32;101121.13;5073244;28;20016;-81
2022/12/13 03:49:54;;;;;;;17.98;6.85;;;;;;;-6.53;90.96;101120.28;5071955;28;20487;-81
2022/12/13 03:52:20;;;;;;;17.42;6.35;;;;;;;-6.55;91.28;101111.75;5073138;28;20387;-81
2022/12/13 03:54:45;;;;;;;17.83;6.40;;;;;;;-6.58;90.96;101104.84;5073125;28;20033;-80
2022/12/13 03:57:10;;;;;;;17.17;6.60;;;;;;;-6.59;91.00;101115.75;5072461;28;20070;-81
2022/12/13 03:59:36;;;;;;;18.15;7.10;;;;;;;-6.59;91.01;101118.28;5072896;28;20107;-81
2022/12/13 04:02:01;;;;;;;17.88;7.00;;;;;;;-6.59;91.22;101112.34;5072955;28;20107;-80
2022/12/13 04:04:26;;;;;;;15.88;6.32;;;;;;;-6.59;91.14;101108.16;5071742;28;20078;-81
2022/12/13 04:06:51;;;;;;;16.73;6.28;;;;;;;-6.60;91.09;101111.47;5073056;28;20119;-81
2022/12/13 04:09:17;;;;;;;19.08;7.13;;;;;;;-6.59;91.06;101109.81;5072123;28;20057;-80
2022/12/13 04:14:26;;;;;;;19.55;7.43;;;;;;;-6.61;91.13;101106.31;5072811;28;20114;-81
2022/12/13 04:16:51;;;;;;;17.73;6.30;;;;;;;-6.60;91.05;101110.59;5071810;28;20420;-81
2022/12/13 04:19:16;;;;;;;18.00;7.43;;;;;;;-6.61;92.31;101109.72;5072608;28;20028;-80
2022/12/13 04:21:42;;;;;;;19.05;7.70;;;;;;;-6.60;91.73;101096.31;5072712;28;20047;-80
2022/12/13 04:24:07;;;;;;;19.10;7.45;;;;;;;-6.57;91.84;101095.63;5071566;28;20020;-81
2022/12/13 04:26:32;;;;;;;21.42;8.55;;;;;;;-6.59;92.63;101099.72;5089427;28;20055;-81
2022/12/13 04:28:58;;;;;;;20.77;8.63;;;;;;;-6.57;93.18;101103.19;5092475;28;20119;-80
2022/12/13 04:31:23;;;;;;;22.20;9.50;;;;;;;-6.57;94.81;101096.47;5091991;28;20020;-81
2022/12/13 04:33:48;;;;;;;21.08;9.25;;;;;;;-6.53;94.04;101103.47;5093138;28;20020;-81
2022/12/13 04:36:18;;;;;;;20.60;8.30;;;;;;;-6.48;93.47;101090.25;5091975;28;20129;-81
2022/12/13 04:38:45;;;;;;;18.90;7.93;;;;;;;-6.48;93.26;101100.34;5092680;28;20035;-81
2022/12/13 04:41:16;;;;;;;18.55;7.38;;;;;;;-6.45;93.09;101100.50;5092571;28;20368;-81
2022/12/13 04:43:42;;;;;;;17.88;6.63;;;;;;;-6.46;92.98;101096.22;5093101;28;20024;-81
2022/12/13 04:46:08;;;;;;;17.02;6.82;;;;;;;-6.46;93.03;101099.66;5091890;28;20032;-80
2022/12/13 04:48:33;;;;;;;18.52;6.90;;;;;;;-6.45;92.60;101095.44;5092957;28;20024;-81
2022/12/13 04:51:00;;;;;;;16.83;6.15;;;;;;;-6.48;92.69;101086.06;5092576;28;20081;-81
2022/12/13 04:53:26;;;;;;;;;;;;;;;-6.45;92.68;101085.34;5092174;28;20093;-80
2022/12/13 04:55:51;;;;;;;17.90;6.65;;;;;;;-6.45;92.44;101095.44;5092696;28;19912;-81
2022/12/13 04:58:17;;;;;;;17.80;7.10;;;;;;;-6.47;92.24;101092.84;5089347;28;20025;-80
2022/12/13 05:00:43;;;;;;;16.77;6.47;;;;;;;-6.47;92.25;101084.41;5071989;28;20074;-80
2022/12/13 05:03:08;;;;;;;17.10;6.13;;;;;;;-6.49;91.80;101088.50;5072165;28;20023;-80
2022/12/13 05:05:33;;;;;;;16.10;6.32;;;;;;;-6.52;91.99;101095.09;5071662;28;20388;-81
2022/12/13 05:07:58;;;;;;;18.80;6.80;;;;;;;-6.53;91.76;101089.97;5072275;28;20477;-81
2022/12/13 05:10:24;;;;;;;15.68;5.57;;;;;;;-6.54;91.98;101089.09;5072043;28;20035;-80
2022/12/13 05:12:49;;;;;;;16.70;6.18;;;;;;;-6.54;92.12;101085.72;5071634;28;20032;-80
2022/12/13 05:15:14;;;;;;;16.25;5.88;;;;;;;-6.55;92.09;101086.50;5072205;28;20028;-81
2022/12/13 05:17:40;;;;;;;15.95;5.75;;;;;;;-6.57;91.90;101085.53;5076031;28;20115;-81
2022/12/13 05:20:05;;;;;;;16.45;6.25;;;;;;;-6.60;92.32;101083.69;5074991;28;20033;-80
2022/12/13 05:22:31;;;;;;;17.52;6.00;;;;;;;-6.59;92.11;101076.97;5076219;28;20514;-80
2022/12/13 05:24:56;;;;;;;14.85;5.43;;;;;;;-6.62;92.25;101080.22;5075875;28;20123;-80
2022/12/13 05:27:21;;;;;;;14.52;5.63;;;;;;;-6.64;91.96;101081.78;5074719;28;20135;-81
2022/12/13 05:29:47;;;;;;;13.32;5.43;;;;;;;-6.64;92.33;101074.19;5075568;28;20032;-80
2022/12/13 05:32:12;;;;;;;17.02;5.70;;;;;;;-6.64;92.08;101063.25;5075853;28;20039;-80
2022/12/13 05:34:37;;;;;;;13.82;5.40;;;;;;;-6.64;92.34;101069.16;5075067;28;20019;-80
2022/12/13 05:37:02;;;;;;;16.20;5.72;;;;;;;-6.62;92.26;101070.13;5075880;28;20554;-80
2022/12/13 05:39:28;;;;;;;15.23;5.45;;;;;;;-6.62;92.64;101071.75;5075780;28;20448;-81
2022/12/13 05:41:55;;;;;;;17.63;6.00;;;;;;;-6.60;92.32;101060.09;5075266;28;20108;-80
2022/12/13 05:44:20;;;;;;;14.68;5.38;;;;;;;-6.60;92.50;101062.63;5075294;28;20365;-80
2022/12/13 05:46:46;;;;;;;15.00;5.65;;;;;;;-6.60;92.44;101053.41;5075306;28;20025;-80
2022/12/13 05:49:11;;;;;;;14.20;5.35;;;;;;;-6.59;92.66;101056.78;5074239;28;20024;-80
2022/12/13 05:51:36;;;;;;;13.23;5.45;;;;;;;-6.60;92.25;101066.03;5075904;28;20020;-80
2022/12/13 05:54:02;;;;;;;15.15;5.50;;;;;;;-6.60;92.62;101062.63;5076044;28;20055;-81
2022/12/13 05:56:27;;;;;;;14.35;5.53;;;;;;;-6.60;92.40;101058.47;5074695;28;20028;-80
2022/12/13 05:58:53;;;;;;;15.10;5.65;;;;;;;-6.58;92.28;101058.53;5075169;28;20039;-81
2022/12/13 06:01:18;;;;;;;15.30;5.63;;;;;;;-6.59;92.27;101050.09;5075267;28;20167;-81
2022/12/13 06:03:44;;;;;;;15.82;5.75;;;;;;;-6.58;92.29;101048.44;5074035;28;20016;-80
2022/12/13 06:06:11;;;;;;;16.40;5.78;;;;;;;-6.59;92.23;101057.66;5074801;28;20040;-80
2022/12/13 06:08:36;;;;;;;15.98;5.82;;;;;;;-6.60;92.16;101062.63;5074606;28;20040;-80
2022/12/13 06:11:04;;;;;;;18.60;6.53;;;;;;;-6.61;92.04;101054.19;5074580;28;20083;-80
2022/12/13 06:13:29;;;;;;;15.73;6.10;;;;;;;-6.61;92.22;101064.28;5075149;28;20392;-80
2022/12/13 06:16:03;;;;;;;17.95;6.63;;;;;;;-6.61;92.38;101064.28;5074541;28;20025;-80
2022/12/13 06:18:31;;;;;;;16.20;6.15;;;;;;;-6.63;92.31;101070.88;5075263;28;20104;-80
2022/12/13 06:20:59;;;;;;;17.73;6.30;;;;;;;-6.65;92.33;101057.31;5075301;28;20028;-80
2022/12/13 06:23:25;;;;;;;17.58;6.45;;;;;;;-6.65;92.49;101057.31;5073979;28;20107;-80
2022/12/13 06:25:50;;;;;;;17.17;6.03;;;;;;;-6.64;92.31;101068.28;5084671;28;20044;-80
2022/12/13 06:28:16;;;;;;;17.30;5.88;;;;;;;-6.66;92.27;101068.19;5093764;28;20027;-80
2022/12/13 06:30:41;;;;;;;16.35;6.10;;;;;;;-6.66;92.29;101070.69;5094084;28;20028;-79
2022/12/13 06:33:10;;;;;;;17.15;6.38;;;;;;;-6.69;92.49;101071.41;5081020;28;20035;-80
2022/12/13 06:35:36;;;;;;;16.75;6.70;;;;;;;-6.69;92.46;101070.50;5075055;28;20149;-80
2022/12/13 06:38:01;;;;;;;17.80;6.07;;;;;;;-6.75;92.02;101068.50;5074013;28;20516;-79
2022/12/13 06:40:26;;;;;;;16.02;5.95;;;;;;;-6.80;92.05;101062.34;5074449;28;20042;-80
2022/12/13 06:42:52;;;;;;;15.75;6.25;;;;;;;-6.86;92.17;101060.31;5074752;28;20385;-80
2022/12/13 06:45:17;;;;;;;16.75;6.50;;;;;;;-6.86;92.12;101059.44;5073439;28;20073;-80
2022/12/13 06:47:42;;;;;;;17.83;6.88;;;;;;;-6.84;92.40;101070.50;5083000;28;20081;-80
2022/12/13 06:50:08;;;;;;;17.92;6.40;;;;;;;-6.84;92.54;101065.44;5094300;28;20050;-80
2022/12/13 06:52:34;;;;;;;16.58;6.55;;;;;;;-6.81;92.32;101064.78;5082781;28;20041;-81
2022/12/13 06:54:59;;;;;;;17.88;6.95;;;;;;;-6.81;92.56;101062.25;5074318;28;20492;-80
2022/12/13 06:57:24;;;;;;;18.80;6.40;;;;;;;-6.81;92.29;101063.13;5075057;28;20127;-82
2022/12/13 06:59:50;;;;;;;17.92;6.30;;;;;;;-6.80;92.33;101059.81;5073751;28;20025;-81
2022/12/13 07:02:15;;;;;;;18.58;6.75;;;;;;;-6.84;92.61;101055.34;5073803;28;20389;-81
2022/12/13 07:04:40;;;;;;;17.10;6.00;;;;;;;-6.84;92.26;101065.44;5074078;28;20035;-81
2022/12/13 07:07:06;;;;;;;16.48;6.20;;;;;;;-6.86;92.23;101065.38;5073518;28;20426;-81
2022/12/13 07:09:32;;;;;;;16.85;5.68;;;;;;;-6.86;92.46;101056.91;5074378;28;20029;-82
2022/12/13 07:11:57;;;;;;;16.23;5.97;;;;;;;-6.84;92.44;101060.41;5074154;28;20071;-82
2022/12/13 07:14:22;;;;;;;18.42;6.82;;;;;;;-6.81;92.69;101063.13;5072949;28;20068;-81
2022/12/13 07:16:48;;;;;;;18.83;7.60;;;;;;;-6.77;92.72;101067.56;5073834;28;20028;-81
2022/12/13 07:19:13;;;;;;;16.80;6.32;;;;;;;-6.77;92.63;101062.53;5072630;28;20033;-82
2022/12/13 07:21:38;;;;;;;17.13;6.88;;;;;;;-6.74;93.02;101071.91;5073757;28;20531;-79
2022/12/13 07:24:05;;;;;;;16.50;6.05;;;;;;;-6.75;93.02;101065.13;5073764;28;20021;-80
2022/12/13 07:26:30;;;;;;;18.40;6.97;;;;;;;-6.75;92.98;101068.50;5072931;28;20048;-80
2022/12/13 07:28:56;;;;;;;18.30;6.63;;;;;;;-6.73;93.01;101072.00;5072249;28;20464;-80
2022/12/13 07:31:30;;;;;;;18.38;6.38;;;;;;;-6.75;93.01;101060.06;5062432;28;20112;-81
2022/12/13 07:33:55;;;;;;;17.80;7.10;;;;;;;-6.73;92.87;101058.53;5072794;28;20465;-80
2022/12/13 07:36:22;;;;;;;17.92;7.47;;;;;;;-6.70;93.00;101061.22;5073239;28;20081;-80
2022/12/13 07:38:56;;;;;;;17.90;7.15;;;;;;;-6.68;93.21;101065.56;5073305;28;20113;-81
2022/12/13 07:41:23;;;;;;;19.33;7.53;;;;;;;-6.65;93.78;101064.03;5072428;28;20112;-81
2022/12/13 07:43:48;;;;;;;20.85;8.10;;;;;;;-6.62;93.64;101071.75;5073496;28;20067;-81
2022/12/13 07:46:13;;;;;;;22.90;8.38;;;;;;;-6.62;93.41;101067.59;5072554;28;20491;-80
2022/12/13 07:48:39;;;;;;;20.00;8.05;;;;;;;-6.59;93.96;101076.97;5072788;28;20026;-81
2022/12/13 07:51:07;;;;;;;22.17;9.32;;;;;;;-6.58;94.92;101073.69;5072816;28;20081;-80
2022/12/13 07:53:33;;;;;;;23.30;10.13;;;;;;;-6.53;94.94;101077.34;5073353;28;20031;-81
2022/12/13 07:56:08;;;;;;;23.63;10.30;;;;;;;-6.52;94.62;101079.06;5072621;28;20021;-81
2022/12/13 07:58:34;;;;;;;24.83;11.32;;;;;;;-6.53;95.31;101077.34;5072479;28;20082;-80
2022/12/13 08:01:04;;;;;;;24.85;10.88;;;;;;;-6.48;95.12;101083.53;5073331;28;20474;-81
2022/12/13 08:03:30;;;;;;;26.50;11.55;;;;;;;-6.48;96.12;101075.09;5072560;28;20500;-81
2022/12/13 08:05:59;;;;;;;23.95;10.45;;;;;;;-6.44;95.32;101077.88;5073374;28;20025;-81
2022/12/13 08:08:25;;;;;;;25.95;11.98;;;;;;;-6.43;96.01;101074.56;5072103;28;20019;-81
2022/12/13 08:10:50;;;;;;;24.90;10.70;;;;;;;-6.39;95.71;101080.66;5072912;28;20443;-80
2022/12/13 08:13:15;;;;;;;27.80;12.57;;;;;;;-6.37;95.99;101072.38;5072408;28;20430;-81
2022/12/13 08:15:41;;;;;;;25.10;11.55;;;;;;;-6.33;95.72;101072.56;5071978;28;20016;-80
2022/12/13 08:18:06;;;;;;;24.92;11.25;;;;;;;-6.31;95.51;101081.13;5072695;28;20115;-80
2022/12/13 08:20:31;;;;;;;25.52;11.23;;;;;;;-6.30;95.97;101071.09;5072960;28;20377;-80
2022/12/13 08:22:58;;;;;;;25.15;11.20;;;;;;;-6.27;96.24;101078.84;5071651;28;20027;-81
2022/12/13 08:25:24;;;;;;;28.27;13.05;;;;;;;-6.27;96.90;101076.31;5072341;28;20416;-81
2022/12/13 08:27:49;;;;;;;27.40;12.13;;;;;;;-6.23;96.23;101082.41;5072917;28;20040;-81
2022/12/13 08:30:15;;;;;;;24.98;11.10;;;;;;;-6.20;96.09;101085.13;5071513;28;20847;-81
2022/12/13 08:32:40;;;;;;;23.58;9.55;;;;;;;-6.17;95.45;101081.88;5072633;28;20551;-81
2022/12/13 08:35:06;;;;;;;21.58;8.90;;;;;;;-6.14;95.55;101095.56;5072134;28;20025;-80
2022/12/13 08:37:31;;;;;;;23.13;9.80;;;;;;;-6.10;96.11;101089.00;5071454;28;20029;-81
2022/12/13 08:40:05;;;;;;;22.75;9.43;;;;;;;-6.09;95.51;101083.19;5064147;28;20045;-81
2022/12/13 08:42:30;;;;;;;23.98;10.57;;;;;;;-6.03;96.22;101093.66;5072463;28;20397;-81
2022/12/13 08:44:56;;;;;;;25.50;11.32;;;;;;;-6.01;96.54;101089.53;5071686;28;20058;-81
2022/12/13 08:47:24;;;;;;;25.25;11.23;;;;;;;-5.98;96.31;101093.88;5072455;28;20025;-81
2022/12/13 08:50:02;;;;;;;29.80;13.70;;;;;;;-5.96;96.74;101087.22;5072553;28;20404;-81
2022/12/13 08:52:27;;;;;;;34.33;16.02;;;;;;;-5.95;97.73;101099.06;5074809;28;20052;-81
2022/12/13 08:54:52;;;;;;;35.33;17.77;;;;;;;-5.90;97.80;101098.53;5076384;28;20451;-81
2022/12/13 08:57:18;;;;;;;36.13;17.65;;;;;;;-5.83;97.98;101101.44;5075877;28;20104;-81
2022/12/13 08:59:43;;;;;;;33.53;16.92;;;;;;;-5.74;97.90;101107.00;5075933;28;20025;-81
2022/12/13 09:02:12;;;;;;;33.50;16.20;;;;;;;-5.65;96.98;101109.16;5075884;28;20055;-81
2022/12/13 09:04:37;;;;;;;30.85;15.23;;;;;;;-5.56;96.61;101109.66;5075950;28;20032;-81
2022/12/13 09:07:03;;;;;;;30.85;15.35;;;;;;;-5.52;97.36;101101.47;5076043;28;20035;-81
2022/12/13 09:09:28;;;;;;;31.60;15.07;;;;;;;-5.44;95.81;101097.69;5076148;28;20036;-81
2022/12/13 09:11:53;;;;;;;29.00;14.68;;;;;;;-5.38;96.44;101097.13;5075788;28;20737;-81
2022/12/13 09:14:19;;;;;;;30.33;14.35;;;;;;;-5.31;96.64;101096.66;5076270;28;20020;-81
2022/12/13 09:16:44;;;;;;;30.27;14.43;;;;;;;-5.22;96.36;101096.28;5076250;28;20025;-81
2022/12/13 09:19:09;;;;;;;27.77;12.90;;;;;;;-5.17;96.56;101104.97;5075016;28;20396;-81
2022/12/13 09:21:35;;;;;;;30.60;15.13;;;;;;;-5.06;95.50;101107.19;5076143;28;20048;-81
2022/12/13 09:24:00;;;;;;;31.92;14.65;;;;;;;-5.04;96.13;101103.09;5075796;28;20024;-82
2022/12/13 09:26:25;;;;;;;30.40;14.93;;;;;;;-4.99;96.56;101105.06;5090652;28;20167;-82
2022/12/13 09:28:50;;;;;;;30.27;15.18;;;;;;;-4.88;96.83;101103.13;5096431;28;20024;-81
2022/12/13 09:31:18;;;;;;;28.92;13.48;;;;;;;-4.75;96.50;101103.75;5095633;28;20353;-81
2022/12/13 09:33:43;;;;;;;;;;;;;;;-4.59;97.02;101102.88;5095943;28;20020;-82
2022/12/13 09:36:17;;;;;;;29.20;13.82;;;;;;;-4.47;96.65;101110.19;5095865;28;19919;-82
2022/12/13 09:38:43;;;;;;;28.83;13.73;;;;;;;-4.43;96.10;101104.50;5096387;28;20102;-83
2022/12/13 09:41:25;;;;;;;32.97;16.40;;;;;;;-4.35;94.53;101104.09;5094701;28;20616;-82
2022/12/13 09:44:06;;;;;;;34.83;16.90;;;;;;;-4.35;96.16;101106.63;5093412;28;20404;-84
2022/12/13 09:46:36;;;;;;;36.05;17.85;;;;;;;-4.22;95.74;101102.13;5093955;28;20384;-84
2022/12/13 09:49:06;;;;;;;34.22;16.65;;;;;;;-4.13;95.64;101106.78;5095064;28;20020;-82
2022/12/13 09:51:32;;;;;;;32.35;16.42;;;;;;;-4.03;96.37;101102.25;5096180;28;20074;-83
2022/12/13 09:53:59;;;;;;;34.40;16.63;;;;;;;-3.87;95.29;101090.28;5095033;28;20465;-83
2022/12/13 09:56:26;;;;;;;34.15;17.13;;;;;;;-3.75;94.64;101093.41;5095308;28;20385;-83
2022/12/13 09:58:53;;;;;;;33.42;16.40;;;;;;;-3.69;95.30;101092.84;5095691;28;20480;-83
2022/12/13 10:01:19;;;;;;;33.97;16.80;;;;;;;-3.60;94.74;101088.19;5094349;28;20028;-84
2022/12/13 10:03:48;;;;;;;35.35;17.48;;;;;;;-3.50;94.48;101081.03;5090901;28;20028;-82
2022/12/13 10:06:19;;;;;;;35.17;18.55;;;;;;;-3.38;93.62;101076.50;5075338;28;20029;-83
2022/12/13 10:08:54;;;;;;;37.47;18.77;;;;;;;-3.39;94.11;101076.41;5074570;28;20377;-83
2022/12/13 10:11:21;;;;;;;35.38;18.25;;;;;;;-3.28;93.57;101085.38;5074897;28;20579;-83
2022/12/13 10:14:05;;;;;;;34.42;17.80;;;;;;;-3.28;94.44;101078.66;5075229;28;20027;-84
2022/12/13 10:16:40;;;;;;;35.65;17.20;;;;;;;-3.11;93.04;101073.44;5074400;28;20035;-84
2022/12/13 10:19:22;;;;;;;34.28;17.15;;;;;;;-3.14;93.43;101065.69;5074921;28;20384;-84
2022/12/13 10:21:48;;;;;;;35.55;18.38;;;;;;;-3.11;93.36;101060.75;5075160;28;20032;-84
2022/12/13 10:24:29;;;;;;;34.33;17.63;;;;;;;-3.05;92.75;101066.13;5074029;28;20380;-84
2022/12/13 10:27:16;;;;;;;36.95;18.60;;;;;;;-3.11;92.78;101063.28;5074790;28;20392;-83
2022/12/13 10:30:15;;;;;;;36.65;18.35;;;;;;;-3.15;92.80;101062.28;5074137;28;20036;-84
2022/12/13 10:32:56;;;;;;;33.50;17.23;;;;;;;-3.16;93.43;101047.84;5074712;28;20044;-85
2022/12/13 10:35:26;;;;;;;35.20;16.92;;;;;;;-3.13;93.47;101050.53;5074934;28;20112;-83
2022/12/13 10:37:52;;;;;;;31.38;16.23;;;;;;;-3.08;92.70;101047.31;5074283;28;20016;-84
2022/12/13 10:40:35;;;;;;;34.35;17.08;;;;;;;-3.03;93.46;101036.53;5074547;28;20070;-84
2022/12/13 10:43:17;;;;;;;34.28;18.70;;;;;;;-2.99;92.94;101050.28;5074444;28;20366;-83
2022/12/13 10:45:54;;;;;;;34.67;17.15;;;;;;;-2.93;92.58;101044.59;5074608;28;20029;-84
2022/12/13 10:48:22;;;;;;;31.80;16.85;;;;;;;-2.90;92.65;101035.44;5074413;28;20032;-83
2022/12/13 10:51:21;;;;;;;31.80;15.70;;;;;;;-2.79;92.73;101040.94;5073782;28;20075;-84
2022/12/13 10:53:48;;;;;;;31.38;15.18;;;;;;;-2.74;93.15;101036.94;5030424;28;20033;-83
2022/12/13 10:56:16;;;;;;;30.05;15.38;;;;;;;-2.66;92.79;101027.09;5074379;28;20025;-84
2022/12/13 10:58:47;;;;;;;29.15;14.68;;;;;;;-2.53;92.49;101015.75;5106091;22;20043;-83
2022/12/13 11:01:22;;;;;;;31.88;16.48;;;;;;;-2.45;91.77;101013.53;5135247;27;20524;-84
2022/12/13 11:04:02;;;;;;;31.85;16.38;;;;;;;-2.35;91.67;101015.66;5134652;27;20027;-84
2022/12/13 11:06:39;;;;;;;31.25;15.77;;;;;;;-2.32;91.95;101008.16;5134692;27;20043;-84
2022/12/13 11:09:23;;;;;;;33.63;17.30;;;;;;;-2.25;91.12;100999.09;5134802;27;20023;-84
2022/12/13 11:11:53;;;;;;;31.67;16.42;;;;;;;-2.23;90.87;101008.50;5134523;27;20034;-84
2022/12/13 11:14:23;;;;;;;33.28;17.27;;;;;;;-2.19;91.11;101004.41;5134357;27;20098;-84
2022/12/13 11:16:51;;;;;;;32.17;16.60;;;;;;;-2.18;90.38;101004.44;5135268;27;20041;-84
2022/12/13 11:19:23;;;;;;;31.17;15.90;;;;;;;-2.16;89.91;100994.38;5134485;27;20076;-83
2022/12/13 11:21:51;;;;;;;29.98;15.27;;;;;;;-2.21;91.03;100996.72;5135478;27;20026;-83
2022/12/13 11:24:24;;;;;;;28.45;14.55;;;;;;;-2.19;90.40;101001.84;5134838;27;20031;-84
2022/12/13 11:26:57;;;;;;;28.40;14.90;;;;;;;-2.19;90.57;100997.63;5134209;27;20069;-85